Time;durP1;ratioP1;P1;durP2;ratioP2;P2;SDS_P1;SDS_P2;PMS_P1;PMS_P2;Temp;Humidity;BMP_temperature;BMP_pressure;BME280_temperature;BME280_humidity;BME280_pressure;Samples;Min_cycle;Max_cycle;Signal;HPM_P1;HPM_P2
2021/07/11 00:01:08;;;;;;;;;12.00;11.40;;;;;24.64;50.03;98889.56;6285853;27;96597;-63
2021/07/11 00:04:12;;;;;;;;;14.00;13.00;;;;;24.62;50.53;98889.06;6285765;27;97447;-63
2021/07/11 00:07:15;;;;;;;;;13.60;13.00;;;;;24.63;50.57;98889.91;6285265;27;97054;-62
2021/07/11 00:10:19;;;;;;;;;14.00;12.80;;;;;24.55;50.60;98885.94;6284966;27;97514;-63
2021/07/11 00:13:24;;;;;;;;;13.00;11.00;;;;;24.44;51.22;98890.06;6284486;27;97259;-63
2021/07/11 00:16:28;;;;;;;;;15.00;14.00;;;;;24.40;51.28;98894.56;6273999;27;96572;-63
2021/07/11 00:19:31;;;;;;;;;15.00;13.00;;;;;24.39;51.19;98888.22;6284089;27;96643;-63
2021/07/11 00:22:35;;;;;;;;;12.50;12.50;;;;;24.40;51.46;98892.63;6266605;27;97779;-64
2021/07/11 00:25:38;;;;;;;;;14.33;13.00;;;;;24.39;51.28;98903.94;6285127;27;97496;-64
2021/07/11 00:28:43;;;;;;;;;14.00;13.60;;;;;24.29;51.59;98898.72;6287739;27;97038;-63
2021/07/11 00:31:46;;;;;;;;;15.00;15.00;;;;;24.31;51.94;98899.19;6270818;27;96606;-66
2021/07/11 00:34:49;;;;;;;;;14.00;13.60;;;;;24.31;51.83;98891.75;6290061;27;96343;-63
2021/07/11 00:37:52;;;;;;;;;14.40;14.00;;;;;24.22;52.02;98899.13;6299521;27;99214;-64
2021/07/11 00:40:56;;;;;;;;;13.00;12.60;;;;;24.16;52.37;98897.56;6283555;27;97247;-62
2021/07/11 00:44:00;;;;;;;;;13.40;12.20;;;;;24.07;52.92;98900.25;6287718;27;96417;-63
2021/07/11 00:47:05;;;;;;;;;13.80;12.80;;;;;23.94;53.16;98887.34;6288315;27;96642;-63
2021/07/11 00:50:11;;;;;;;;;15.00;14.00;;;;;23.86;53.08;98887.22;6276639;27;96449;-63
2021/07/11 00:53:15;;;;;;;;;16.00;14.00;;;;;23.74;54.02;98893.28;6288123;27;97239;-63
2021/07/11 00:56:20;;;;;;;;;14.60;14.40;;;;;23.69;53.75;98885.13;6288146;27;98003;-63
2021/07/11 00:59:26;;;;;;;;;16.00;15.00;;;;;23.70;53.87;98895.03;6287197;27;97390;-63
2021/07/11 01:02:35;;;;;;;;;15.00;14.00;;;;;23.76;53.76;98888.25;6279360;27;97392;-63
2021/07/11 01:05:44;;;;;;;;;13.00;12.60;;;;;23.66;54.42;98896.72;6286661;27;97524;-63
2021/07/11 01:08:58;;;;;;;;;16.60;15.00;;;;;23.69;53.71;98898.88;6295178;27;96716;-63
2021/07/11 01:12:06;;;;;;;;;17.00;14.00;;;;;23.55;54.02;98873.31;6270115;27;97299;-63
2021/07/11 01:15:18;;;;;;;;;17.00;14.60;;;;;23.65;54.25;98889.63;6266827;27;97857;-63
2021/07/11 01:18:25;;;;;;;;;15.25;14.50;;;;;23.66;54.28;98891.22;6287203;27;97486;-64
2021/07/11 01:21:36;;;;;;;;;15.00;14.20;;;;;23.55;54.60;98884.31;6287627;27;97513;-63
2021/07/11 01:24:49;;;;;;;;;14.60;14.00;;;;;23.51;54.28;98886.84;6287980;27;97045;-64
2021/07/11 01:27:55;;;;;;;;;15.00;14.00;;;;;23.48;54.46;98889.41;6287267;27;96691;-63
2021/07/11 01:31:00;;;;;;;;;16.00;15.00;;;;;23.51;54.77;98892.34;6287634;27;97479;-64
2021/07/11 01:34:07;;;;;;;;;17.00;15.00;;;;;23.51;54.65;98894.28;6287187;27;97408;-63
2021/07/11 01:37:11;;;;;;;;;16.00;15.00;;;;;23.56;54.50;98886.75;6265536;27;97302;-63
2021/07/11 01:40:18;;;;;;;;;15.00;14.20;;;;;23.48;54.55;98884.72;6287450;27;97593;-64
2021/07/11 01:43:26;;;;;;;;;16.80;15.80;;;;;23.40;54.91;98879.91;6269996;27;98249;-64
2021/07/11 01:46:31;;;;;;;;;15.20;14.60;;;;;23.45;54.89;98887.28;6287922;27;96531;-64
2021/07/11 01:49:36;;;;;;;;;15.00;14.50;;;;;23.43;54.80;98879.28;6286690;27;97474;-63
2021/07/11 01:52:42;;;;;;;;;16.00;16.00;;;;;23.41;54.92;98876.00;6270426;27;96908;-64
2021/07/11 01:55:45;;;;;;;;;18.40;18.40;;;;;23.41;54.77;98878.78;6282138;27;96690;-64
2021/07/11 02:10:17;;;;;;;;;14.00;14.00;;;;;23.33;54.83;98869.31;6284002;27;97054;-63
2021/07/11 02:14:00;;;;;;;;;15.00;15.00;;;;;23.28;54.96;98874.09;6272641;27;98507;-64
2021/07/11 02:17:09;;;;;;;;;15.00;14.00;;;;;23.28;55.16;98874.91;6287483;27;97419;-64
2021/07/11 02:20:27;;;;;;;;;15.40;14.00;;;;;23.26;55.35;98870.84;6284896;27;96929;-63
2021/07/11 02:23:34;;;;;;;;;17.40;16.00;;;;;23.23;55.50;98874.19;6286098;27;98137;-64
2021/07/11 02:27:19;;;;;;;;;14.00;14.00;;;;;23.24;55.28;98879.38;6287035;27;97080;-64
2021/07/11 02:30:26;;;;;;;;;15.75;14.00;;;;;23.23;55.25;98882.44;6266636;27;98568;-63
2021/07/11 02:34:27;;;;;;;;;16.20;15.60;;;;;23.19;55.57;98871.25;6288200;27;96576;-63
2021/07/11 02:37:31;;;;;;;;;16.00;15.00;;;;;23.19;55.46;98876.75;6287496;27;97442;-65
2021/07/11 02:40:38;;;;;;;;;15.25;15.00;;;;;23.23;55.46;98877.75;6286082;27;97031;-64
2021/07/11 02:43:45;;;;;;;;;16.00;16.00;;;;;23.17;55.40;98869.91;6283508;27;97220;-64
2021/07/11 02:46:55;;;;;;;;;15.00;14.60;;;;;23.20;55.50;98875.63;6276945;27;97171;-64
2021/07/11 02:50:02;;;;;;;;;14.60;14.00;;;;;23.23;55.70;98877.75;6282657;27;97078;-63
2021/07/11 02:53:16;;;;;;;;;14.20;14.00;;;;;23.24;55.36;98878.56;6285856;27;97437;-64
2021/07/11 02:56:21;;;;;;;;;17.00;15.25;;;;;23.27;55.35;98878.78;6285612;27;97575;-64
2021/07/11 02:59:27;;;;;;;;;16.00;15.40;;;;;23.34;55.43;98886.63;6286830;27;97568;-64
2021/07/11 03:02:34;;;;;;;;;17.00;16.00;;;;;23.36;55.15;98884.38;6285526;27;97107;-65
2021/07/11 03:05:38;;;;;;;;;17.40;16.40;;;;;23.36;55.20;98889.88;6286388;27;97085;-65
2021/07/11 03:08:41;;;;;;;;;14.60;14.00;;;;;23.39;55.07;98877.47;6286589;27;97281;-64
2021/07/11 03:11:57;;;;;;;;;16.40;15.00;;;;;23.37;55.12;98877.75;6285666;27;97563;-64
2021/07/11 03:15:03;;;;;;;;;13.00;12.60;;;;;23.39;54.83;98872.78;6285457;27;96640;-65
2021/07/11 03:18:10;;;;;;;;;16.00;16.00;;;;;23.38;54.84;98882.16;6278812;27;97396;-64
2021/07/11 03:21:15;;;;;;;;;16.00;16.00;;;;;23.46;54.84;98880.63;6279107;27;98433;-64
2021/07/11 03:24:23;;;;;;;;;17.60;17.60;;;;;23.47;54.45;98883.09;6286405;27;96499;-64
2021/07/11 03:27:29;;;;;;;;;17.00;17.00;;;;;23.33;54.37;98851.97;6285221;27;96915;-64
2021/07/11 03:30:42;;;;;;;;;17.00;16.00;;;;;23.56;54.39;98872.16;6285802;27;97081;-64
2021/07/11 03:33:53;;;;;;;;;15.60;15.00;;;;;23.57;54.61;98880.13;6284529;27;97426;-64
2021/07/11 03:36:58;;;;;;;;;18.00;17.60;;;;;23.57;54.34;98882.06;6285496;27;97389;-64
2021/07/11 03:40:07;;;;;;;;;17.00;16.00;;;;;23.59;54.58;98879.84;6256649;27;98536;-64
2021/07/11 03:43:14;;;;;;;;;19.00;18.40;;;;;23.70;54.26;98882.03;6279983;27;98109;-65
2021/07/11 03:46:20;;;;;;;;;17.00;16.00;;;;;23.71;54.09;98872.66;6286143;27;96550;-64
2021/07/11 03:49:25;;;;;;;;;17.00;16.20;;;;;23.82;54.13;98886.22;6286070;27;96592;-64
2021/07/11 03:52:31;;;;;;;;;19.60;18.60;;;;;23.86;53.91;98878.97;6285404;27;97609;-65
2021/07/11 03:55:36;;;;;;;;;18.60;17.00;;;;;23.86;54.09;98882.53;6286054;27;97450;-64
2021/07/11 03:58:42;;;;;;;;;18.50;17.25;;;;;23.97;53.82;98883.13;6285655;27;96681;-64
2021/07/11 04:01:47;;;;;;;;;16.60;16.00;;;;;24.04;53.69;98887.09;6284977;27;97474;-65
2021/07/11 04:04:52;;;;;;;;;16.60;15.60;;;;;24.05;53.66;98885.97;6272827;27;97289;-65
2021/07/11 04:07:56;;;;;;;;;18.00;18.00;;;;;24.09;53.37;98872.41;6283340;27;97698;-64
2021/07/11 04:11:00;;;;;;;;;17.00;16.25;;;;;24.14;53.44;98875.06;6280081;27;96764;-64
2021/07/11 04:14:04;;;;;;;;;17.00;16.00;;;;;24.16;53.00;98872.78;6271707;27;99503;-64
2021/07/11 04:17:10;;;;;;;;;17.00;16.00;;;;;24.24;52.90;98874.81;6289827;27;97866;-64
2021/07/11 04:20:16;;;;;;;;;18.80;17.20;;;;;24.33;52.86;98881.25;6277876;27;97494;-64
2021/07/11 04:23:22;;;;;;;;;18.20;17.20;;;;;24.44;52.78;98870.75;6289180;27;97703;-65
2021/07/11 04:26:26;;;;;;;;;18.40;18.40;;;;;24.51;52.74;98871.97;6289923;27;97449;-64
2021/07/11 04:29:33;;;;;;;;;23.00;20.00;;;;;24.57;52.26;98876.25;6278090;27;96773;-65
2021/07/11 04:32:38;;;;;;;;;18.00;18.00;;;;;24.65;52.14;98873.84;6278695;27;96663;-65
2021/07/11 04:35:44;;;;;;;;;19.00;18.00;;;;;24.69;51.94;98866.56;6286494;27;96740;-64
2021/07/11 04:38:47;;;;;;;;;19.40;18.40;;;;;24.81;51.94;98853.03;6286322;27;97848;-65
2021/07/11 04:41:51;;;;;;;;;20.00;19.00;;;;;24.88;51.51;98862.50;6288461;27;96640;-65
2021/07/11 04:44:54;;;;;;;;;18.00;17.00;;;;;24.93;51.20;98858.78;6279433;27;98563;-64
2021/07/11 04:47:58;;;;;;;;;19.00;17.50;;;;;24.89;50.93;98853.09;6286763;27;97645;-64
2021/07/11 04:51:02;;;;;;;;;19.40;18.40;;;;;25.02;50.95;98856.91;6288748;27;96717;-64
2021/07/11 04:54:06;;;;;;;;;18.00;17.00;;;;;24.92;51.15;98848.91;6287833;27;97310;-64
2021/07/11 04:57:09;;;;;;;;;19.00;17.00;;;;;25.10;50.97;98861.66;6281799;27;98580;-63
2021/07/11 05:00:14;;;;;;;;;17.00;17.00;;;;;25.16;50.50;98868.66;6289217;27;96579;-64
2021/07/11 05:03:19;;;;;;;;;18.25;17.00;;;;;25.32;50.35;98860.75;6292196;27;96584;-65
2021/07/11 05:06:22;;;;;;;;;17.00;17.00;;;;;25.45;49.97;98855.16;6288679;27;96580;-64
2021/07/11 05:09:25;;;;;;;;;20.75;18.25;;;;;25.56;49.90;98852.91;6288489;27;96679;-64
2021/07/11 05:12:29;;;;;;;;;19.00;18.00;;;;;25.71;49.39;98848.88;6288110;27;97424;-64
2021/07/11 05:15:32;;;;;;;;;17.00;17.00;;;;;25.80;49.07;98844.22;6289097;27;97215;-64
2021/07/11 05:18:36;;;;;;;;;19.67;18.00;;;;;25.93;48.88;98845.19;6288743;27;97602;-64
2021/07/11 05:21:39;;;;;;;;;16.00;16.00;;;;;26.02;48.78;98846.00;6289245;27;96943;-65
2021/07/11 05:24:43;;;;;;;;;17.00;17.00;;;;;26.01;49.06;98842.44;6288478;27;97715;-65
2021/07/11 05:27:46;;;;;;;;;16.00;15.00;;;;;26.11;48.67;98846.81;6288234;27;97461;-65
2021/07/11 05:30:49;;;;;;;;;17.00;16.40;;;;;26.17;48.41;98843.59;6279584;27;96980;-65
2021/07/11 05:33:54;;;;;;;;;16.25;16.00;;;;;26.24;48.52;98843.94;6287889;27;97463;-65
2021/07/11 05:36:58;;;;;;;;;15.00;14.00;;;;;26.24;48.74;98846.69;6287048;27;97791;-65
2021/07/11 05:40:01;;;;;;;;;14.80;13.80;;;;;26.38;48.86;98846.53;6271809;27;98406;-64
2021/07/11 05:43:05;;;;;;;;;14.00;14.00;;;;;26.53;48.17;98845.22;6297010;27;97617;-64
2021/07/11 05:46:08;;;;;;;;;13.00;12.00;;;;;26.67;48.09;98837.56;6286826;27;98730;-64
2021/07/11 05:49:13;;;;;;;;;15.20;14.20;;;;;26.83;47.85;98837.84;6287408;27;96681;-64
2021/07/11 05:52:16;;;;;;;;;16.00;15.25;;;;;26.90;47.61;98836.22;6287858;27;96704;-65
2021/07/11 05:55:19;;;;;;;;;14.00;14.00;;;;;26.97;47.52;98836.53;6288549;27;97421;-65
2021/07/11 05:58:22;;;;;;;;;15.00;14.20;;;;;26.98;47.37;98834.56;6286461;27;97494;-65
2021/07/11 06:01:27;;;;;;;;;16.00;14.00;;;;;27.08;47.32;98846.06;6284791;27;97581;-64
2021/07/11 06:04:32;;;;;;;;;11.20;11.20;;;;;27.33;46.97;98849.88;6268487;27;99001;-65
2021/07/11 06:07:36;;;;;;;;;13.00;12.00;;;;;27.39;46.38;98839.44;6287596;27;97198;-65
2021/07/11 06:10:39;;;;;;;;;13.00;13.00;;;;;27.57;46.36;98843.75;6287984;27;96802;-65
2021/07/11 06:13:43;;;;;;;;;15.00;15.00;;;;;27.60;46.00;98851.44;6287207;27;96843;-65
2021/07/11 06:16:46;;;;;;;;;11.33;11.33;;;;;27.71;46.30;98844.34;6293835;27;96991;-65
2021/07/11 06:19:51;;;;;;;;;12.60;12.00;;;;;27.86;46.61;98842.94;6287223;27;97434;-64
2021/07/11 06:22:55;;;;;;;;;13.00;12.00;;;;;28.17;45.28;98839.81;6286748;27;97772;-64
2021/07/11 06:25:58;;;;;;;;;12.00;10.00;;;;;28.06;45.05;98841.31;6276142;27;97399;-65
2021/07/11 06:29:04;;;;;;;;;12.00;11.00;;;;;28.10;45.53;98840.31;6279818;27;97350;-66
2021/07/11 06:32:07;;;;;;;;;12.00;12.00;;;;;28.17;45.56;98839.81;6286671;27;96697;-65
2021/07/11 06:35:14;;;;;;;;;11.25;11.25;;;;;28.29;45.75;98835.16;6287166;27;97493;-65
2021/07/11 06:38:19;;;;;;;;;12.00;12.00;;;;;28.46;45.35;98838.91;6287320;27;97284;-65
2021/07/11 06:41:27;;;;;;;;;12.80;12.20;;;;;28.53;45.02;98815.03;6283526;27;96587;-65
2021/07/11 06:44:30;;;;;;;;;11.00;11.00;;;;;28.73;44.82;98830.84;6287700;27;96570;-65
2021/07/11 06:47:33;;;;;;;;;11.60;11.00;;;;;28.74;44.14;98813.00;6272383;27;97510;-65
2021/07/11 06:50:40;;;;;;;;;9.40;9.00;;;;;28.84;44.12;98828.41;6286539;27;96895;-65
2021/07/11 06:53:43;;;;;;;;;10.00;10.00;;;;;28.87;44.16;98830.53;6266778;27;99476;-65
2021/07/11 06:56:46;;;;;;;;;12.00;11.60;;;;;28.94;43.96;98819.66;6287418;27;98091;-65
2021/07/11 06:59:50;;;;;;;;;12.00;12.00;;;;;29.09;44.22;98827.31;6286750;27;97467;-64
2021/07/11 07:02:53;;;;;;;;;10.40;10.40;;;;;29.28;44.31;98822.00;6287492;27;96436;-64
2021/07/11 07:05:57;;;;;;;;;10.40;10.40;;;;;29.47;43.68;98821.44;6286727;27;97412;-64
2021/07/11 07:09:00;;;;;;;;;12.60;12.40;;;;;29.62;42.79;98808.81;6286398;27;96989;-64
2021/07/11 07:12:05;;;;;;;;;10.60;10.40;;;;;29.73;42.48;98818.31;6272558;27;98185;-64
2021/07/11 07:15:11;;;;;;;;;10.40;10.40;;;;;29.74;42.83;98822.72;6286607;27;96675;-64
2021/07/11 07:18:14;;;;;;;;;10.00;9.50;;;;;29.65;42.20;98794.25;6286648;27;97282;-63
2021/07/11 07:21:19;;;;;;;;;11.00;11.00;;;;;29.99;42.53;98821.53;6286469;27;98099;-65
2021/07/11 07:24:22;;;;;;;;;12.00;12.00;;;;;30.09;42.45;98831.38;6285728;27;97945;-64
2021/07/11 07:27:25;;;;;;;;;12.00;12.00;;;;;30.15;41.97;98818.84;6286477;27;96646;-65
2021/07/11 07:30:28;;;;;;;;;10.40;10.40;;;;;30.23;41.76;98819.84;6275864;27;96887;-65
2021/07/11 07:33:31;;;;;;;;;10.25;10.00;;;;;30.16;41.52;98814.88;6285914;27;96567;-64
2021/07/11 07:36:36;;;;;;;;;10.20;10.20;;;;;30.32;42.43;98814.94;6285095;27;97525;-64
2021/07/11 07:39:39;;;;;;;;;11.00;11.00;;;;;30.58;41.50;98817.28;6284921;27;96880;-64
2021/07/11 07:42:45;;;;;;;;;11.00;10.60;;;;;30.89;41.41;98818.16;6278616;27;96489;-64
2021/07/11 07:45:48;;;;;;;;;12.40;12.40;;;;;31.11;40.26;98822.34;6284710;27;97493;-65
2021/07/11 07:48:51;;;;;;;;;10.00;10.00;;;;;31.01;40.00;98822.03;6286856;27;97037;-64
2021/07/11 07:51:56;;;;;;;;;11.60;11.60;;;;;31.11;40.06;98821.53;6284240;27;97819;-64
2021/07/11 07:54:59;;;;;;;;;10.80;10.80;;;;;31.35;40.23;98818.56;6286121;27;96576;-65
2021/07/11 07:58:03;;;;;;;;;12.00;11.00;;;;;31.52;39.72;98822.94;6285602;27;97113;-65
2021/07/11 08:01:07;;;;;;;;;11.00;10.00;;;;;31.37;40.00;98821.81;6285952;27;97138;-62
2021/07/11 08:04:11;;;;;;;;;10.60;10.60;;;;;31.37;39.92;98824.59;6285897;27;96546;-62
2021/07/11 08:07:15;;;;;;;;;12.00;11.40;;;;;31.66;40.08;98824.13;6279444;27;99300;-62
2021/07/11 08:10:19;;;;;;;;;11.00;10.50;;;;;31.81;39.82;98825.25;6275137;27;96480;-63
2021/07/11 08:13:22;;;;;;;;;11.00;10.40;;;;;31.98;39.42;98824.03;6281535;27;96506;-63
2021/07/11 08:16:26;;;;;;;;;11.00;10.50;;;;;32.06;39.39;98826.59;6284056;27;97853;-64
2021/07/11 08:19:33;;;;;;;;;10.00;10.00;;;;;31.93;38.88;98813.97;6286212;27;97043;-64
2021/07/11 08:22:38;;;;;;;;;10.00;10.00;;;;;32.07;38.73;98816.25;6286063;27;97370;-66
2021/07/11 08:25:41;;;;;;;;;11.00;11.00;;;;;32.12;39.18;98813.22;6257349;27;97294;-65
2021/07/11 08:28:44;;;;;;;;;12.00;11.00;;;;;32.12;38.47;98793.69;6284989;27;96543;-64
2021/07/11 08:31:48;;;;;;;;;9.25;9.25;;;;;32.42;38.42;98814.25;6285072;27;97420;-65
2021/07/11 08:34:51;;;;;;;;;12.00;12.00;;;;;32.73;38.10;98812.47;6285068;27;97518;-64
2021/07/11 08:37:55;;;;;;;;;11.40;11.00;;;;;32.71;38.12;98812.03;6284807;27;96549;-64
2021/07/11 08:40:59;;;;;;;;;13.00;13.00;;;;;32.71;38.15;98815.63;6284506;27;96650;-65
2021/07/11 08:44:02;;;;;;;;;12.40;12.40;;;;;33.05;38.10;98817.47;6279729;27;96659;-65
2021/07/11 08:47:06;;;;;;;;;11.00;11.00;;;;;33.31;37.65;98818.72;6283277;27;96590;-64
2021/07/11 08:50:12;;;;;;;;;13.75;13.00;;;;;33.43;37.00;98816.53;6288316;27;96802;-64
2021/07/11 08:53:17;;;;;;;;;11.00;11.00;;;;;33.65;36.92;98814.06;6289682;27;96973;-64
2021/07/11 08:56:25;;;;;;;;;13.00;13.00;;;;;33.92;36.76;98815.69;6288807;27;97481;-64
2021/07/11 08:59:29;;;;;;;;;12.00;11.60;;;;;33.77;36.44;98814.69;6289632;27;97538;-64
2021/07/11 09:02:33;;;;;;;;;13.00;12.00;;;;;33.82;36.96;98807.97;6289003;27;98684;-63
2021/07/11 09:05:40;;;;;;;;;13.00;12.00;;;;;33.97;37.13;98808.97;6289336;27;96555;-64
2021/07/11 09:08:45;;;;;;;;;12.20;12.20;;;;;34.16;36.78;98812.41;6261138;27;97665;-64
2021/07/11 09:11:50;;;;;;;;;12.00;12.00;;;;;34.21;36.37;98808.53;6287237;27;97906;-65
2021/07/11 09:14:54;;;;;;;;;12.40;12.00;;;;;34.36;36.49;98807.50;6289489;27;97443;-65
2021/07/11 09:17:57;;;;;;;;;13.20;11.80;;;;;34.20;36.24;98810.53;6288516;27;97099;-63
2021/07/11 09:21:02;;;;;;;;;13.40;13.40;;;;;34.21;36.79;98812.13;6269982;27;97206;-62
2021/07/11 09:24:12;;;;;;;;;11.60;11.60;;;;;34.44;35.60;98812.03;6284777;27;96402;-64
2021/07/11 09:27:18;;;;;;;;;13.25;13.25;;;;;34.72;36.10;98817.16;6288768;27;97519;-63
2021/07/11 09:30:21;;;;;;;;;12.40;12.40;;;;;34.75;35.24;98814.38;6287214;27;96966;-64
2021/07/11 09:33:25;;;;;;;;;13.00;13.00;;;;;34.66;35.30;98813.06;6288572;27;97071;-64
2021/07/11 09:36:28;;;;;;;;;13.20;13.00;;;;;34.60;36.03;98809.00;6289018;27;98070;-62
2021/07/11 09:39:34;;;;;;;;;15.00;13.50;;;;;34.78;36.26;98810.84;6278259;27;96769;-64
2021/07/11 09:42:39;;;;;;;;;15.60;15.60;;;;;34.64;35.54;98812.66;6275861;27;97934;-63
2021/07/11 09:45:43;;;;;;;;;14.60;14.60;;;;;34.60;35.84;98814.59;6289212;27;97452;-64
2021/07/11 09:48:46;;;;;;;;;14.00;14.00;;;;;34.16;36.08;98809.63;6287732;27;97610;-64
2021/07/11 09:51:49;;;;;;;;;14.00;13.20;;;;;34.21;35.84;98817.72;6288660;27;97597;-63
2021/07/11 09:54:58;;;;;;;;;13.00;13.00;;;;;34.32;37.34;98824.25;6302364;27;98007;-63
2021/07/11 09:58:04;;;;;;;;;13.00;12.60;;;;;34.72;36.92;98826.38;6286486;27;96677;-64
2021/07/11 10:01:11;;;;;;;;;14.00;13.00;;;;;35.28;35.53;98827.34;6287992;27;96982;-63
2021/07/11 10:04:14;;;;;;;;;14.00;13.60;;;;;35.64;34.34;98829.22;6283421;27;96618;-63
2021/07/11 10:07:18;;;;;;;;;14.00;12.00;;;;;35.62;35.20;98835.25;6287134;27;97088;-64
2021/07/11 10:10:25;;;;;;;;;12.75;12.75;;;;;35.48;34.53;98834.31;6285123;27;96973;-63
2021/07/11 10:13:29;;;;;;;;;13.00;13.00;;;;;35.27;34.65;98826.53;6281185;27;97106;-63
2021/07/11 10:16:34;;;;;;;;;14.50;14.00;;;;;35.10;35.44;98819.53;6285639;27;99644;-64
2021/07/11 10:19:39;;;;;;;;;12.00;12.00;;;;;35.33;34.92;98829.78;6269501;27;97239;-64
2021/07/11 10:22:47;;;;;;;;;13.00;12.80;;;;;34.91;35.63;98830.16;6277199;27;97060;-64
2021/07/11 10:25:57;;;;;;;;;13.00;12.80;;;;;34.50;35.91;98832.09;6287807;27;97591;-65
2021/07/11 10:29:11;;;;;;;;;11.20;11.20;;;;;34.81;36.63;98826.06;6287682;27;96598;-64
2021/07/11 10:32:22;;;;;;;;;15.00;15.00;;;;;34.96;36.01;98830.63;6283065;27;97392;-65
2021/07/11 10:35:25;;;;;;;;;12.00;12.00;;;;;35.02;35.20;98831.88;6287846;27;97198;-65
2021/07/11 10:38:31;;;;;;;;;15.20;13.80;;;;;35.19;35.81;98828.47;6284665;27;97362;-63
2021/07/11 10:41:47;;;;;;;;;13.20;13.00;;;;;35.37;35.60;98825.00;6287755;27;97162;-63
2021/07/11 10:45:01;;;;;;;;;13.00;13.00;;;;;35.48;34.95;98815.47;6274184;27;96530;-63
2021/07/11 10:48:05;;;;;;;;;14.25;14.25;;;;;35.48;35.43;98821.09;6287617;27;97487;-65
2021/07/11 10:51:18;;;;;;;;;16.60;15.60;;;;;35.50;34.95;98796.28;6285662;27;97569;-64
2021/07/11 10:54:27;;;;;;;;;13.60;13.00;;;;;35.78;35.57;98800.47;6284449;27;97199;-63
2021/07/11 10:57:34;;;;;;;;;12.20;11.80;;;;;35.91;34.68;98784.94;6286336;27;96723;-64
2021/07/11 11:00:37;;;;;;;;;15.60;15.40;;;;;36.14;34.83;98791.09;6287707;27;96502;-63
2021/07/11 11:03:46;;;;;;;;;14.80;14.00;;;;;36.28;33.86;98782.72;6286441;27;96710;-64
2021/07/11 11:06:50;;;;;;;;;14.00;13.00;;;;;36.20;33.48;98794.34;6288518;27;97820;-64
2021/07/11 11:09:53;;;;;;;;;16.25;15.25;;;;;36.38;34.01;98796.00;6285094;27;97931;-63
2021/07/11 11:13:03;;;;;;;;;14.20;14.00;;;;;36.56;34.46;98795.25;6287661;27;97395;-64
2021/07/11 11:16:16;;;;;;;;;14.60;14.60;;;;;36.83;33.59;98802.19;6278087;27;96625;-63
2021/07/11 11:19:24;;;;;;;;;14.20;14.20;;;;;37.08;33.59;98791.81;6268115;27;99138;-66
2021/07/11 11:22:27;;;;;;;;;14.75;14.75;;;;;37.20;32.83;98808.25;6286197;27;96376;-65
2021/07/11 11:25:31;;;;;;;;;14.00;14.00;;;;;37.41;33.19;98807.47;6286713;27;97448;-66
2021/07/11 11:28:38;;;;;;;;;14.40;12.60;;;;;37.18;31.67;98809.88;6286489;27;97344;-65
2021/07/11 11:31:41;;;;;;;;;14.00;13.00;;;;;37.24;32.17;98830.78;6285845;27;96592;-64
2021/07/11 11:34:48;;;;;;;;;16.00;15.00;;;;;36.86;32.99;98833.09;6285567;27;97668;-63
2021/07/11 11:37:53;;;;;;;;;14.00;14.00;;;;;36.73;33.43;98848.72;6285516;27;97231;-64
2021/07/11 11:40:56;;;;;;;;;12.00;12.00;;;;;36.44;32.92;98832.94;6285836;27;97010;-64
2021/07/11 11:44:13;;;;;;;;;14.00;14.00;;;;;36.26;33.71;98832.06;6279983;27;97052;-63
2021/07/11 11:47:16;;;;;;;;;13.50;12.50;;;;;36.11;33.51;98827.53;6285411;27;97551;-63
2021/07/11 11:50:21;;;;;;;;;12.00;11.75;;;;;35.97;33.66;98829.06;6285425;27;97478;-63
2021/07/11 11:53:24;;;;;;;;;13.00;13.00;;;;;36.01;34.62;98815.06;6279143;27;97928;-64
2021/07/11 11:56:27;;;;;;;;;14.00;14.00;;;;;36.32;33.94;98799.59;6294552;27;99688;-64
2021/07/11 11:59:33;;;;;;;;;15.00;13.40;;;;;36.65;34.28;98804.97;6285063;27;97576;-66
2021/07/11 12:02:36;;;;;;;;;14.20;13.00;;;;;36.39;33.02;98799.63;6287259;27;96682;-65
2021/07/11 12:05:40;;;;;;;;;15.00;14.80;;;;;36.19;34.02;98807.56;6285859;27;97382;-64
2021/07/11 12:08:56;;;;;;;;;16.00;15.80;;;;;35.97;34.57;98801.00;6285119;27;96889;-64
2021/07/11 12:12:01;;;;;;;;;17.00;17.00;;;;;35.81;34.41;98802.53;6283644;27;96832;-64
2021/07/11 12:15:09;;;;;;;;;16.00;16.00;;;;;35.67;34.66;98806.03;6283613;27;97425;-65
2021/07/11 12:18:12;;;;;;;;;15.00;14.00;;;;;35.41;34.57;98797.81;6283833;27;97272;-65
2021/07/11 12:21:20;;;;;;;;;16.00;15.00;;;;;35.21;35.07;98816.88;6283907;27;98047;-64
2021/07/11 12:24:26;;;;;;;;;19.00;18.00;;;;;34.98;35.51;98819.84;6290292;27;97062;-63
2021/07/11 12:27:33;;;;;;;;;15.00;14.80;;;;;34.79;35.81;98820.03;6288802;27;97144;-63
2021/07/11 12:30:41;;;;;;;;;17.00;17.00;;;;;34.65;36.38;98806.63;6288715;27;97263;-63
2021/07/11 12:33:48;;;;;;;;;19.00;18.00;;;;;34.51;36.44;98812.09;6287980;27;96688;-65
2021/07/11 12:36:54;;;;;;;;;18.00;17.00;;;;;34.39;37.31;98812.34;6292078;27;96656;-65
2021/07/11 12:40:15;;;;;;;;;18.00;17.40;;;;;34.25;37.69;98817.78;6275036;27;96527;-64
2021/07/11 12:43:20;;;;;;;;;17.80;16.00;;;;;34.22;37.28;98816.53;6274880;27;96437;-63
2021/07/11 12:46:27;;;;;;;;;19.00;17.00;;;;;34.16;37.64;98815.22;6279903;27;98940;-64
2021/07/11 12:49:31;;;;;;;;;19.00;18.50;;;;;34.08;38.02;98815.50;6284238;27;97410;-65
2021/07/11 12:52:37;;;;;;;;;18.40;16.60;;;;;34.00;38.06;98820.22;6284829;27;97486;-65
2021/07/11 12:55:40;;;;;;;;;17.20;16.80;;;;;33.91;38.91;98814.91;6286931;27;96499;-65
2021/07/11 12:58:45;;;;;;;;;20.00;18.60;;;;;33.96;38.42;98818.56;6288916;27;96596;-64
2021/07/11 13:01:59;;;;;;;;;18.80;17.80;;;;;33.92;38.16;98815.69;6288370;27;96695;-65
2021/07/11 13:05:08;;;;;;;;;19.00;18.00;;;;;33.87;38.06;98813.22;6287724;27;97431;-65
2021/07/11 13:08:13;;;;;;;;;17.00;17.00;;;;;33.81;38.26;98809.16;6286484;27;97221;-65
2021/07/11 13:11:17;;;;;;;;;17.00;16.60;;;;;33.75;38.42;98807.88;6288663;27;98029;-65
2021/07/11 13:14:20;;;;;;;;;16.40;15.80;;;;;33.69;38.86;98800.97;6278669;27;97511;-65
2021/07/11 13:17:26;;;;;;;;;19.60;18.60;;;;;33.61;38.42;98799.25;6288841;27;98023;-65
2021/07/11 13:20:30;;;;;;;;;18.00;17.40;;;;;33.46;38.44;98804.63;6288744;27;96970;-65
2021/07/11 13:23:33;;;;;;;;;19.80;18.60;;;;;33.45;38.46;98814.19;6286496;27;96989;-65
2021/07/11 13:26:37;;;;;;;;;18.20;16.60;;;;;33.44;38.60;98812.56;6288031;27;97191;-63
2021/07/11 13:29:40;;;;;;;;;20.00;19.00;;;;;33.46;39.74;98817.78;6287338;27;97476;-65
2021/07/11 13:32:45;;;;;;;;;20.60;20.00;;;;;33.46;38.38;98818.59;6289050;27;96652;-65
2021/07/11 13:35:48;;;;;;;;;21.50;20.50;;;;;33.33;38.83;98830.34;6286879;27;97408;-65
2021/07/11 13:38:52;;;;;;;;;13.50;12.50;;;;;32.80;39.57;98834.94;6287819;27;97453;-64
2021/07/11 13:41:55;;;;;;;;;14.00;13.00;;;;;32.39;40.38;98834.53;6287440;27;97678;-64
2021/07/11 13:44:58;;;;;;;;;12.00;12.00;;;;;31.95;41.35;98827.56;6288510;27;97404;-64
2021/07/11 13:48:03;;;;;;;;;14.20;13.00;;;;;31.55;42.36;98833.38;6286503;27;97991;-63
2021/07/11 13:51:08;;;;;;;;;12.25;12.25;;;;;31.23;42.96;98840.91;6288482;27;97026;-65
2021/07/11 13:54:11;;;;;;;;;13.40;11.40;;;;;30.83;43.37;98825.16;6287420;27;97190;-65
2021/07/11 13:57:14;;;;;;;;;14.50;14.00;;;;;30.63;43.60;98825.38;6287406;27;97462;-63
2021/07/11 14:00:20;;;;;;;;;12.00;12.00;;;;;30.42;44.58;98815.25;6288071;27;96567;-64
2021/07/11 14:03:24;;;;;;;;;15.20;13.60;;;;;30.54;44.33;98800.50;6287806;27;96675;-65
2021/07/11 14:06:27;;;;;;;;;17.00;15.00;;;;;30.58;45.00;98789.47;6286755;27;97473;-64
2021/07/11 14:09:31;;;;;;;;;14.00;13.25;;;;;30.62;44.39;98785.63;6286750;27;97392;-64
2021/07/11 14:12:35;;;;;;;;;13.00;12.75;;;;;30.64;44.15;98786.09;6281806;27;96702;-64
2021/07/11 14:15:39;;;;;;;;;13.40;12.00;;;;;30.50;44.68;98789.25;6287139;27;97771;-63
2021/07/11 14:18:44;;;;;;;;;12.00;11.60;;;;;30.42;44.95;98795.78;6287963;27;97025;-63
2021/07/11 14:21:47;;;;;;;;;12.40;12.00;;;;;30.35;44.89;98775.31;6286631;27;97513;-64
2021/07/11 14:24:50;;;;;;;;;12.75;12.00;;;;;30.29;44.91;98782.28;6282854;27;96720;-64